Time;durP1;ratioP1;P1;durP2;ratioP2;P2;SDS_P1;SDS_P2;PMS_P1;PMS_P2;Temp;Humidity;BMP_temperature;BMP_pressure;BME280_temperature;BME280_humidity;BME280_pressure;Samples;Min_cycle;Max_cycle;Signal;HPM_P1;HPM_P2
2022/04/01 00:01:36;;;;;;;11.65;7.00;;;9.40;57.70;;;;;;2340561;53;20957;-67
2022/04/01 00:04:02;;;;;;;10.55;7.12;;;9.40;57.70;;;;;;2344568;53;21432;-67
2022/04/01 00:06:30;;;;;;;10.45;6.55;;;9.40;57.70;;;;;;2338745;53;20913;-67
2022/04/01 00:08:56;;;;;;;9.70;5.87;;;9.40;57.80;;;;;;2333635;53;21011;-67
2022/04/01 00:11:23;;;;;;;9.65;6.25;;;9.40;57.90;;;;;;2336089;53;20937;-66
2022/04/01 00:13:53;;;;;;;9.65;6.05;;;9.40;57.90;;;;;;2334579;53;21000;-66
2022/04/01 00:16:20;;;;;;;10.25;6.37;;;9.30;57.90;;;;;;2335435;53;20996;-65
2022/04/01 00:18:46;;;;;;;9.77;6.20;;;9.30;57.80;;;;;;2334533;53;20969;-67
2022/04/01 00:21:12;;;;;;;10.38;6.35;;;9.40;57.90;;;;;;2338195;53;21068;-65
2022/04/01 00:23:39;;;;;;;10.85;7.05;;;9.30;57.80;;;;;;2379583;53;21055;-66
2022/04/01 00:26:05;;;;;;;10.88;6.82;;;9.30;57.70;;;;;;2331900;53;21511;-65
2022/04/01 00:28:32;;;;;;;11.85;6.62;;;9.30;57.70;;;;;;2579924;52;20945;-66
2022/04/01 00:30:59;;;;;;;9.30;6.28;;;9.30;57.80;;;;;;2334657;53;21956;-66
2022/04/01 00:33:27;;;;;;;9.43;6.12;;;9.30;57.80;;;;;;2337826;53;20977;-67
2022/04/01 00:35:53;;;;;;;9.90;6.20;;;9.20;57.80;;;;;;2335531;53;22024;-67
2022/04/01 00:38:20;;;;;;;10.52;6.62;;;9.20;57.70;;;;;;2338181;53;20950;-66
2022/04/01 00:40:51;;;;;;;9.27;5.60;;;9.20;58.10;;;;;;2337137;53;21060;-66
2022/04/01 00:43:24;;;;;;;10.48;5.85;;;9.20;57.80;;;;;;2339149;53;21032;-65
2022/04/01 00:45:51;;;;;;;10.50;6.28;;;9.20;57.80;;;;;;2335690;53;20968;-67
2022/04/01 00:48:18;;;;;;;10.90;6.25;;;9.30;57.80;;;;;;2335190;53;20924;-67
2022/04/01 00:50:44;;;;;;;9.75;6.15;;;9.20;57.70;;;;;;2335466;53;20997;-66
2022/04/01 00:53:10;;;;;;;10.57;6.53;;;9.20;57.70;;;;;;2334831;53;21450;-66
2022/04/01 00:55:37;;;;;;;10.20;6.47;;;9.20;57.80;;;;;;2335033;53;21100;-66
2022/04/01 00:58:05;;;;;;;10.80;6.65;;;9.20;57.70;;;;;;2431693;52;21983;-65
2022/04/01 01:00:32;;;;;;;10.27;6.57;;;9.20;57.70;;;;;;2337940;53;20972;-65
2022/04/01 01:02:59;;;;;;;9.82;5.60;;;9.10;57.70;;;;;;2337455;53;20992;-67
2022/04/01 01:05:25;;;;;;;10.18;5.68;;;9.20;57.80;;;;;;2349400;53;21067;-67
2022/04/01 01:07:52;;;;;;;9.70;6.37;;;9.10;57.80;;;;;;2334939;53;20948;-66
2022/04/01 01:10:18;;;;;;;11.00;6.85;;;9.20;57.80;;;;;;2334664;53;21513;-67
2022/04/01 01:12:45;;;;;;;10.63;6.37;;;9.10;57.70;;;;;;2337936;53;20933;-67
2022/04/01 01:15:18;;;;;;;12.88;8.18;;;9.20;57.80;;;;;;2334771;53;21308;-65
2022/04/01 01:17:45;;;;;;;10.43;6.53;;;9.10;57.60;;;;;;2484162;52;22049;-68
2022/04/01 01:20:12;;;;;;;9.43;6.32;;;9.10;57.60;;;;;;2334899;53;21058;-66
2022/04/01 01:22:41;;;;;;;10.07;6.20;;;9.20;57.70;;;;;;2335026;53;20925;-66
2022/04/01 01:25:12;;;;;;;10.18;6.22;;;9.10;57.60;;;;;;2335237;53;21040;-67
2022/04/01 01:27:40;;;;;;;10.30;6.93;;;9.10;57.60;;;;;;2315780;54;21000;-67
2022/04/01 01:30:10;;;;;;;11.07;6.05;;;9.10;57.70;;;;;;2334967;53;21043;-66
2022/04/01 01:32:37;;;;;;;9.82;6.03;;;9.00;57.70;;;;;;2334710;53;21452;-66
2022/04/01 01:35:04;;;;;;;10.57;6.80;;;9.10;57.70;;;;;;2335155;53;21027;-67
2022/04/01 01:37:31;;;;;;;11.15;6.30;;;9.00;57.80;;;;;;2350686;53;20968;-65
2022/04/01 01:39:58;;;;;;;9.70;6.35;;;9.00;57.80;;;;;;2326910;53;21060;-65
2022/04/01 01:42:24;;;;;;;9.82;6.12;;;9.00;57.80;;;;;;2358535;53;21913;-65
2022/04/01 01:44:51;;;;;;;10.05;6.45;;;9.00;57.70;;;;;;2339835;53;20953;-66
2022/04/01 01:47:17;;;;;;;10.70;6.47;;;9.00;57.70;;;;;;2334724;53;21893;-65
2022/04/01 01:55:19;;;;;;;8.95;5.15;;;9.00;57.70;;;;;;2580839;52;20940;-67
2022/04/01 01:57:45;;;;;;;10.00;6.28;;;9.00;57.70;;;;;;2337490;53;20945;-67
2022/04/01 02:00:16;;;;;;;9.38;5.95;;;9.10;57.90;;;;;;2335074;53;20949;-66
2022/04/01 02:02:44;;;;;;;9.85;6.25;;;9.00;57.90;;;;;;2336200;53;20953;-66
2022/04/01 02:05:10;;;;;;;8.73;5.62;;;9.10;57.90;;;;;;2315690;54;21115;-66
2022/04/01 02:07:37;;;;;;;9.77;5.72;;;9.10;57.90;;;;;;2335063;53;20932;-66
2022/04/01 02:10:04;;;;;;;10.65;6.28;;;9.10;57.80;;;;;;2336952;53;21032;-67
2022/04/01 02:12:31;;;;;;;8.18;5.18;;;9.10;57.80;;;;;;2335321;53;20968;-67
2022/04/01 02:14:59;;;;;;;11.07;6.40;;;9.10;57.80;;;;;;2335037;53;20932;-67
2022/04/01 02:17:26;;;;;;;10.85;6.15;;;9.10;57.80;;;;;;2337808;53;20952;-67
2022/04/01 02:19:52;;;;;;;10.57;6.45;;;9.00;57.80;;;;;;2334431;53;21523;-66
2022/04/01 02:22:18;;;;;;;12.02;6.70;;;9.10;57.80;;;;;;2340868;53;22059;-66
2022/04/01 02:24:50;;;;;;;10.90;6.78;;;9.10;57.70;;;;;;2323358;53;21387;-67
2022/04/01 02:27:17;;;;;;;10.80;6.03;;;9.00;57.70;;;;;;2318546;54;20953;-64
2022/04/01 02:29:44;;;;;;;11.50;6.68;;;9.00;57.70;;;;;;2341449;54;21961;-67
2022/04/01 02:32:13;;;;;;;11.90;6.72;;;9.10;57.80;;;;;;2335634;53;20981;-65
2022/04/01 02:34:40;;;;;;;9.90;6.47;;;9.10;57.80;;;;;;2579153;52;20936;-67
2022/04/01 02:37:07;;;;;;;12.57;7.62;;;9.00;57.70;;;;;;2334930;53;20949;-67
2022/04/01 02:39:35;;;;;;;12.40;7.85;;;9.00;57.50;;;;;;2337216;54;20917;-66
2022/04/01 02:42:02;;;;;;;14.30;7.87;;;9.00;57.50;;;;;;2334898;53;20948;-65
2022/04/01 02:44:29;;;;;;;12.40;7.95;;;9.00;57.40;;;;;;2340571;53;20962;-67
2022/04/01 02:46:55;;;;;;;12.50;8.00;;;9.00;57.30;;;;;;2466820;52;20933;-66
2022/04/01 02:49:22;;;;;;;11.90;7.25;;;8.90;57.30;;;;;;2339092;53;20936;-65
2022/04/01 02:51:49;;;;;;;11.55;7.30;;;8.90;57.20;;;;;;2546786;52;20917;-67
2022/04/01 02:54:16;;;;;;;11.30;7.25;;;8.90;57.30;;;;;;2338504;54;20944;-66
2022/04/01 02:56:44;;;;;;;12.63;7.55;;;8.90;57.30;;;;;;2344386;53;20973;-66
2022/04/01 02:59:11;;;;;;;11.65;7.62;;;8.90;57.30;;;;;;2341877;53;21071;-66
2022/04/01 03:01:39;;;;;;;12.43;7.82;;;8.80;57.20;;;;;;2360139;52;21933;-67
2022/04/01 03:04:09;;;;;;;12.37;8.15;;;8.80;57.10;;;;;;2335414;53;21025;-67
2022/04/01 03:06:38;;;;;;;13.80;8.18;;;8.70;57.00;;;;;;2334627;53;21000;-65
2022/04/01 03:09:06;;;;;;;13.68;8.23;;;8.70;57.10;;;;;;2335369;53;20989;-68
2022/04/01 03:11:32;;;;;;;13.68;8.00;;;8.70;57.10;;;;;;2334966;53;20965;-67
2022/04/01 03:13:58;;;;;;;12.40;7.37;;;8.70;57.10;;;;;;2334393;53;21072;-65
2022/04/01 03:16:25;;;;;;;13.40;8.07;;;8.70;57.20;;;;;;2339077;53;21040;-65
2022/04/01 03:18:51;;;;;;;13.00;7.70;;;8.70;57.10;;;;;;2336843;53;21040;-66
2022/04/01 03:21:17;;;;;;;12.50;7.75;;;8.60;57.00;;;;;;2332354;53;20952;-67
2022/04/01 03:23:44;;;;;;;12.50;7.87;;;8.60;57.10;;;;;;2336045;53;22147;-65
2022/04/01 03:26:11;;;;;;;13.48;7.70;;;8.60;57.20;;;;;;2336283;53;21701;-65
2022/04/01 03:28:39;;;;;;;12.55;7.32;;;8.50;57.10;;;;;;2334608;53;20937;-67
2022/04/01 03:31:06;;;;;;;12.95;8.10;;;8.50;57.70;;;;;;2334799;53;20941;-66
2022/04/01 03:33:35;;;;;;;12.95;7.03;;;8.50;57.10;;;;;;2338348;53;21021;-65
2022/04/01 03:36:01;;;;;;;11.10;6.60;;;8.50;57.10;;;;;;2369952;53;20948;-68
2022/04/01 03:38:28;;;;;;;13.88;7.45;;;8.50;57.20;;;;;;2334837;53;20921;-66
2022/04/01 03:40:55;;;;;;;12.18;7.25;;;8.50;57.80;;;;;;2337900;53;21000;-66
2022/04/01 03:43:23;;;;;;;11.93;7.32;;;8.50;57.20;;;;;;2335555;53;20952;-65
2022/04/01 03:45:50;;;;;;;13.70;7.62;;;8.50;57.20;;;;;;2334962;53;20945;-66
2022/04/01 03:48:24;;;;;;;10.95;6.87;;;8.40;57.00;;;;;;2338431;53;21001;-67
2022/04/01 03:50:53;;;;;;;11.27;6.78;;;8.40;57.00;;;;;;2341784;53;20971;-67
2022/04/01 03:53:26;;;;;;;13.30;7.05;;;8.40;57.00;;;;;;2340768;53;21031;-66
2022/04/01 03:55:53;;;;;;;10.95;6.20;;;8.40;57.10;;;;;;2454279;52;22050;-65
2022/04/01 03:58:32;;;;;;;11.82;6.87;;;8.30;57.00;;;;;;2320699;53;20937;-66
2022/04/01 04:01:00;;;;;;;10.30;6.35;;;8.30;57.20;;;;;;2334478;53;21070;-65
2022/04/01 04:03:29;;;;;;;9.30;5.40;;;8.30;57.10;;;;;;2339922;53;20976;-65
2022/04/01 04:05:56;;;;;;;10.80;6.50;;;8.30;57.20;;;;;;2353894;52;21958;-66
2022/04/01 04:08:26;;;;;;;11.07;6.62;;;8.30;57.10;;;;;;2334502;53;20981;-66
2022/04/01 04:10:53;;;;;;;10.70;6.37;;;8.30;57.20;;;;;;2337093;53;20944;-67
2022/04/01 04:13:20;;;;;;;10.75;7.07;;;8.30;57.20;;;;;;2334423;53;21028;-65
2022/04/01 04:16:21;;;;;;;9.60;5.90;;;8.30;57.10;;;;;;2334993;53;21289;-65
2022/04/01 04:18:48;;;;;;;9.70;5.97;;;8.30;57.30;;;;;;2334873;53;21020;-67
2022/04/01 04:21:25;;;;;;;8.93;5.72;;;8.30;57.10;;;;;;2335201;53;21000;-67
2022/04/01 04:24:04;;;;;;;9.63;6.10;;;8.20;57.10;;;;;;2334325;53;22100;-67
2022/04/01 04:26:32;;;;;;;10.45;6.35;;;8.20;57.10;;;;;;2334962;53;20996;-66
2022/04/01 04:29:08;;;;;;;8.85;6.20;;;8.20;57.10;;;;;;2338216;53;21095;-66
2022/04/01 04:31:36;;;;;;;11.00;6.85;;;8.20;57.70;;;;;;2335045;53;21953;-67
2022/04/01 04:34:14;;;;;;;10.13;6.37;;;8.20;57.10;;;;;;2336637;54;21910;-66
2022/04/01 04:36:41;;;;;;;10.90;6.18;;;8.20;57.20;;;;;;2298007;54;20953;-66
2022/04/01 04:39:17;;;;;;;10.18;6.72;;;8.20;57.10;;;;;;2338175;53;20961;-66
2022/04/01 04:41:45;;;;;;;8.88;5.62;;;8.10;57.10;;;;;;2578119;53;20921;-65
2022/04/01 04:44:13;;;;;;;8.18;4.82;;;8.10;57.10;;;;;;2336019;53;21060;-65
2022/04/01 04:46:52;;;;;;;9.50;5.68;;;8.20;57.40;;;;;;2300588;55;21541;-66
2022/04/01 04:49:45;;;;;;;9.52;5.75;;;8.10;57.20;;;;;;2555665;53;20941;-66
2022/04/01 04:52:15;;;;;;;9.90;7.07;;;8.20;57.10;;;;;;2329862;53;21531;-65
2022/04/01 04:54:47;;;;;;;10.95;6.32;;;8.10;57.00;;;;;;2347174;53;20948;-66
2022/04/01 04:57:15;;;;;;;10.20;6.97;;;8.10;56.90;;;;;;2332376;53;21039;-68
2022/04/01 04:59:42;;;;;;;9.75;6.22;;;8.10;56.80;;;;;;2351971;53;20955;-67
2022/04/01 05:02:16;;;;;;;9.95;6.47;;;8.10;56.70;;;;;;2334610;53;21060;-66
2022/04/01 05:05:22;;;;;;;10.65;6.90;;;8.00;56.70;;;;;;2343186;53;20946;-67
2022/04/01 05:10:44;;;;;;;10.88;7.35;;;8.00;56.80;;;;;;2379962;53;20980;-67
2022/04/01 05:13:28;;;;;;;10.43;6.15;;;8.00;56.70;;;;;;2353453;53;20948;-67
2022/04/01 05:15:54;;;;;;;9.40;6.05;;;7.90;56.60;;;;;;2345900;53;21005;-67
2022/04/01 05:18:25;;;;;;;9.88;6.72;;;7.80;56.50;;;;;;2340980;53;21893;-66
2022/04/01 05:20:55;;;;;;;10.48;7.43;;;7.80;56.70;;;;;;2335614;53;21492;-67
2022/04/01 05:23:48;;;;;;;9.52;6.28;;;7.80;56.80;;;;;;2334995;53;20952;-65
2022/04/01 05:26:15;;;;;;;10.05;6.68;;;7.70;56.90;;;;;;2580445;52;21028;-66
2022/04/01 05:29:02;;;;;;;10.50;6.15;;;7.70;56.80;;;;;;2334767;53;21857;-67
2022/04/01 05:31:54;;;;;;;11.30;6.70;;;7.70;57.80;;;;;;2594736;52;20937;-66
2022/04/01 05:35:02;;;;;;;10.27;6.93;;;7.70;57.10;;;;;;2343648;53;20993;-66
2022/04/01 05:37:29;;;;;;;10.02;6.87;;;7.70;57.20;;;;;;2336685;53;21054;-66
2022/04/01 05:39:56;;;;;;;9.40;6.55;;;7.70;57.00;;;;;;2334848;53;21487;-65
2022/04/01 05:42:22;;;;;;;10.55;6.80;;;7.70;57.00;;;;;;2430971;53;20951;-66
2022/04/01 05:44:48;;;;;;;10.32;7.15;;;7.70;57.10;;;;;;2334858;53;20948;-65
2022/04/01 05:47:16;;;;;;;10.75;7.35;;;7.70;57.20;;;;;;2333213;53;21043;-66
2022/04/01 05:49:44;;;;;;;12.05;7.37;;;7.70;57.30;;;;;;2335380;53;21015;-66
2022/04/01 05:52:11;;;;;;;13.43;7.68;;;7.80;57.40;;;;;;2334829;53;21043;-67
2022/04/01 05:54:41;;;;;;;10.63;7.25;;;7.70;57.30;;;;;;2334407;53;21115;-67
2022/04/01 05:57:10;;;;;;;10.05;6.62;;;7.70;57.40;;;;;;2348389;53;20978;-65
2022/04/01 05:59:41;;;;;;;10.93;7.45;;;7.80;57.50;;;;;;2347270;53;20970;-66
2022/04/01 06:02:44;;;;;;;10.27;6.85;;;7.80;57.50;;;;;;2342648;54;21928;-67
2022/04/01 06:06:41;;;;;;;11.20;7.03;;;7.80;57.70;;;;;;2354736;53;20996;-66
2022/04/01 06:11:01;;;;;;;12.82;7.47;;;7.80;57.60;;;;;;2333591;53;21495;-65
2022/04/01 06:13:52;;;;;;;10.60;6.97;;;7.80;57.40;;;;;;2335543;53;21433;-67
2022/04/01 06:16:33;;;;;;;10.35;6.93;;;7.80;57.20;;;;;;2549130;52;20941;-65
2022/04/01 06:19:31;;;;;;;11.60;7.53;;;7.80;57.30;;;;;;2334916;53;21920;-66
2022/04/01 06:22:20;;;;;;;12.85;8.27;;;7.80;57.30;;;;;;2335065;53;21072;-67
2022/04/01 06:26:55;;;;;;;14.38;9.55;;;7.80;57.10;;;;;;2352290;53;20977;-67
2022/04/01 06:29:52;;;;;;;17.55;9.90;;;7.80;57.00;;;;;;2340994;53;20954;-67
2022/04/01 06:32:32;;;;;;;14.40;8.65;;;7.70;56.70;;;;;;2349395;53;20950;-66
2022/04/01 06:35:18;;;;;;;13.18;8.65;;;7.70;56.80;;;;;;2339341;53;21020;-67
2022/04/01 06:40:50;;;;;;;14.77;9.65;;;7.70;56.90;;;;;;2353308;54;21065;-66
2022/04/01 06:43:17;;;;;;;13.70;8.52;;;7.60;56.90;;;;;;2335161;53;21040;-66
2022/04/01 06:45:44;;;;;;;14.93;9.65;;;7.60;56.60;;;;;;2334774;53;20949;-67
2022/04/01 06:48:10;;;;;;;16.10;10.68;;;7.60;56.70;;;;;;2353465;53;20981;-65
2022/04/01 06:50:37;;;;;;;15.30;9.82;;;7.60;56.80;;;;;;2335128;53;21426;-66
2022/04/01 06:53:05;;;;;;;13.95;9.57;;;7.50;56.80;;;;;;2580655;52;20987;-65
2022/04/01 06:55:31;;;;;;;15.95;9.88;;;7.50;56.90;;;;;;2476510;53;20948;-67
2022/04/01 06:57:59;;;;;;;15.07;9.93;;;7.50;57.00;;;;;;2334905;53;20944;-66
2022/04/01 07:00:26;;;;;;;16.37;10.10;;;7.50;57.10;;;;;;2333705;53;20949;-67
2022/04/01 07:02:52;;;;;;;15.68;10.10;;;7.50;57.10;;;;;;2336304;53;20952;-67
2022/04/01 07:05:19;;;;;;;17.98;11.82;;;7.50;57.00;;;;;;2334837;53;20932;-67
2022/04/01 07:07:45;;;;;;;18.58;10.57;;;7.50;57.00;;;;;;2334529;53;21044;-67
2022/04/01 07:10:12;;;;;;;18.90;11.60;;;7.50;57.10;;;;;;2334391;53;20916;-67
2022/04/01 07:12:38;;;;;;;16.25;11.05;;;7.50;57.00;;;;;;2334869;53;20937;-66
2022/04/01 07:15:09;;;;;;;16.05;11.25;;;7.50;57.10;;;;;;2329107;54;20981;-66
2022/04/01 07:17:37;;;;;;;19.47;11.90;;;7.50;57.10;;;;;;2335546;53;21458;-68
2022/04/01 07:20:08;;;;;;;17.92;10.88;;;7.50;57.00;;;;;;2334931;53;20952;-66
2022/04/01 07:22:40;;;;;;;19.87;11.73;;;7.40;56.90;;;;;;2337199;53;21031;-65
2022/04/01 07:25:08;;;;;;;20.75;12.70;;;7.40;57.00;;;;;;2329345;54;21922;-66
2022/04/01 07:27:35;;;;;;;20.88;13.55;;;7.40;56.90;;;;;;2350471;53;20954;-68
2022/04/01 07:30:03;;;;;;;16.20;10.15;;;7.40;56.90;;;;;;2336405;53;20972;-67
2022/04/01 07:32:32;;;;;;;18.25;11.00;;;7.40;57.10;;;;;;2334854;53;21013;-67
2022/04/01 07:35:04;;;;;;;17.10;11.07;;;7.40;57.20;;;;;;2334687;53;21592;-67
2022/04/01 07:37:31;;;;;;;16.65;10.30;;;7.40;57.20;;;;;;2335035;53;20956;-67
2022/04/01 07:40:27;;;;;;;16.70;10.77;;;7.40;57.30;;;;;;2575532;52;20953;-67
2022/04/01 07:42:53;;;;;;;15.40;9.75;;;7.40;57.20;;;;;;2355102;53;20958;-67
2022/04/01 07:45:20;;;;;;;17.45;11.45;;;7.40;57.20;;;;;;2333297;53;20964;-66
2022/04/01 07:47:47;;;;;;;18.73;10.68;;;7.40;57.20;;;;;;2334851;53;20949;-67
2022/04/01 07:50:15;;;;;;;16.92;11.23;;;7.30;57.20;;;;;;2334761;53;22068;-67
2022/04/01 07:52:43;;;;;;;18.73;11.25;;;7.30;57.20;;;;;;2334930;53;20901;-66
2022/04/01 07:55:10;;;;;;;19.60;10.98;;;7.30;57.20;;;;;;2334674;53;21016;-65
2022/04/01 07:57:37;;;;;;;17.62;11.52;;;7.30;57.20;;;;;;2344404;53;21519;-65
2022/04/01 08:00:04;;;;;;;21.05;12.02;;;7.30;57.20;;;;;;2343815;53;20925;-67
2022/04/01 08:02:30;;;;;;;20.35;12.40;;;7.30;57.20;;;;;;2335034;53;21973;-67
2022/04/01 08:04:57;;;;;;;20.20;12.43;;;7.40;57.30;;;;;;2343190;53;20974;-67
2022/04/01 08:07:23;;;;;;;18.62;12.10;;;7.40;57.20;;;;;;2341909;53;21874;-67
2022/04/01 08:09:49;;;;;;;19.65;12.27;;;7.40;57.20;;;;;;2336053;53;20928;-66
2022/04/01 08:12:19;;;;;;;17.73;11.05;;;7.30;57.20;;;;;;2340358;53;21313;-65
2022/04/01 08:14:45;;;;;;;17.27;11.32;;;7.30;57.20;;;;;;2343746;53;21007;-66
2022/04/01 08:17:12;;;;;;;15.85;10.23;;;7.30;57.30;;;;;;2339460;53;20965;-67
2022/04/01 08:19:39;;;;;;;18.10;11.25;;;7.30;57.40;;;;;;2347883;53;21526;-66
2022/04/01 08:22:05;;;;;;;17.73;11.15;;;7.30;57.40;;;;;;2333500;53;20972;-65
2022/04/01 08:24:32;;;;;;;17.27;11.38;;;7.30;57.40;;;;;;2594078;52;20981;-67
2022/04/01 08:27:00;;;;;;;17.25;10.90;;;7.30;57.30;;;;;;2337794;53;21004;-66
2022/04/01 08:29:29;;;;;;;15.85;10.25;;;7.30;57.30;;;;;;2334669;53;20952;-66
2022/04/01 08:31:58;;;;;;;16.55;10.52;;;7.30;57.40;;;;;;2334656;53;21035;-67
2022/04/01 08:34:25;;;;;;;17.37;10.18;;;7.30;57.40;;;;;;2335735;53;20945;-67
2022/04/01 08:36:51;;;;;;;16.48;10.73;;;7.30;57.40;;;;;;2334952;53;21855;-67
2022/04/01 08:39:17;;;;;;;16.17;9.88;;;7.40;57.40;;;;;;2334146;53;21551;-66
2022/04/01 08:41:43;;;;;;;14.90;9.85;;;7.40;57.50;;;;;;2334782;53;20944;-65
2022/04/01 08:44:11;;;;;;;14.68;9.60;;;7.40;57.50;;;;;;2335175;53;20947;-67
2022/04/01 08:46:37;;;;;;;15.77;9.70;;;7.40;57.50;;;;;;2334789;53;21119;-66
2022/04/01 08:49:06;;;;;;;15.65;9.63;;;7.40;57.50;;;;;;2343461;53;20978;-67
2022/04/01 08:51:33;;;;;;;14.20;9.05;;;7.40;57.60;;;;;;2344642;53;21107;-66
2022/04/01 08:53:59;;;;;;;14.18;9.25;;;7.40;57.60;;;;;;2345191;53;21495;-67
2022/04/01 08:56:25;;;;;;;15.15;9.05;;;7.40;57.50;;;;;;2339530;53;22021;-66
2022/04/01 08:58:53;;;;;;;12.90;8.27;;;7.50;57.50;;;;;;2355099;53;20921;-67
2022/04/01 09:01:20;;;;;;;13.13;8.52;;;7.50;57.50;;;;;;2340690;53;20950;-66
2022/04/01 09:03:46;;;;;;;13.50;8.43;;;7.50;57.50;;;;;;2345451;53;20980;-66
2022/04/01 09:06:13;;;;;;;13.88;8.70;;;7.50;57.50;;;;;;2351451;53;22572;-67
2022/04/01 09:08:41;;;;;;;11.73;7.55;;;7.50;57.50;;;;;;2336698;53;20929;-65
2022/04/01 09:11:09;;;;;;;12.65;8.30;;;7.50;57.50;;;;;;2412684;52;22199;-67
2022/04/01 09:13:49;;;;;;;10.82;7.10;;;7.50;57.60;;;;;;2338775;53;20952;-66
2022/04/01 09:16:51;;;;;;;12.27;7.57;;;7.50;57.60;;;;;;2350187;53;20956;-66
2022/04/01 09:19:27;;;;;;;13.20;8.48;;;7.50;57.70;;;;;;2344705;53;21999;-67
2022/04/01 09:21:53;;;;;;;12.18;7.65;;;7.50;57.40;;;;;;2341808;53;20941;-66
2022/04/01 09:24:20;;;;;;;12.63;8.52;;;7.50;57.40;;;;;;2351229;53;20949;-66
2022/04/01 09:26:47;;;;;;;11.65;7.70;;;7.50;57.40;;;;;;2579795;52;20988;-67
2022/04/01 09:29:13;;;;;;;13.50;8.40;;;7.50;57.40;;;;;;2333645;53;21417;-66
2022/04/01 09:31:40;;;;;;;12.73;8.05;;;7.60;57.50;;;;;;2577465;53;21442;-66
2022/04/01 09:34:13;;;;;;;13.75;8.50;;;7.60;57.50;;;;;;2345910;53;21021;-65
2022/04/01 09:36:41;;;;;;;12.93;8.20;;;7.60;57.50;;;;;;2337775;53;20976;-68
2022/04/01 09:39:14;;;;;;;13.45;8.95;;;7.60;57.50;;;;;;2335260;53;20969;-67
2022/04/01 09:42:04;;;;;;;14.07;9.18;;;7.60;57.50;;;;;;2334095;53;21953;-65
2022/04/01 09:44:35;;;;;;;12.52;8.23;;;7.60;57.60;;;;;;2335290;53;21023;-67
2022/04/01 09:47:03;;;;;;;12.13;8.30;;;7.60;57.40;;;;;;2335648;53;20960;-66
2022/04/01 09:49:42;;;;;;;13.73;9.38;;;7.60;57.50;;;;;;2345471;53;20957;-67
2022/04/01 09:52:25;;;;;;;14.40;9.13;;;7.60;57.50;;;;;;2341545;53;22065;-66
2022/04/01 09:54:52;;;;;;;15.55;9.25;;;7.60;57.50;;;;;;2333535;53;20958;-66
2022/04/01 09:57:20;;;;;;;14.23;9.25;;;7.60;57.50;;;;;;2335061;53;20959;-66
2022/04/01 09:59:48;;;;;;;13.60;8.70;;;7.60;57.50;;;;;;2334904;53;20948;-65
2022/04/01 10:02:14;;;;;;;14.05;9.40;;;7.60;57.50;;;;;;2339413;53;20929;-67
2022/04/01 10:04:41;;;;;;;13.55;8.80;;;7.60;57.50;;;;;;2490112;52;21006;-66
2022/04/01 10:07:10;;;;;;;13.60;8.68;;;7.60;57.50;;;;;;2580811;52;21878;-65
2022/04/01 10:09:37;;;;;;;15.18;9.23;;;7.60;57.50;;;;;;2335398;53;21052;-67
2022/04/01 10:12:26;;;;;;;13.00;8.85;;;7.60;57.40;;;;;;2334839;53;20964;-67
2022/04/01 10:14:57;;;;;;;12.63;8.43;;;7.60;58.00;;;;;;2334883;53;21932;-65
2022/04/01 10:17:26;;;;;;;12.48;7.75;;;7.60;57.40;;;;;;2581032;52;20948;-66
2022/04/01 10:19:53;;;;;;;11.82;7.80;;;7.60;57.40;;;;;;2336636;53;20948;-68
2022/04/01 10:22:20;;;;;;;11.70;7.82;;;7.60;57.30;;;;;;2421611;52;21869;-67
2022/04/01 10:25:15;;;;;;;10.00;6.65;;;7.60;57.40;;;;;;2342062;53;21013;-65
2022/04/01 10:27:58;;;;;;;11.63;7.55;;;7.60;57.50;;;;;;2343831;53;21342;-67
2022/04/01 10:30:24;;;;;;;10.60;6.90;;;7.60;57.40;;;;;;2343635;53;21286;-67
2022/04/01 10:32:52;;;;;;;11.80;7.57;;;7.60;57.40;;;;;;2479337;53;20939;-67
2022/04/01 10:35:32;;;;;;;11.15;7.22;;;7.60;57.50;;;;;;2576096;52;20937;-64
2022/04/01 10:38:33;;;;;;;10.57;7.03;;;7.60;57.60;;;;;;2334259;53;21357;-65
2022/04/01 10:41:12;;;;;;;11.68;8.05;;;7.60;57.90;;;;;;2339580;53;21064;-68
2022/04/01 10:43:44;;;;;;;11.45;7.22;;;7.60;57.70;;;;;;2346759;53;21027;-65
2022/04/01 10:46:16;;;;;;;10.73;7.35;;;7.60;57.60;;;;;;2335699;53;20952;-66
2022/04/01 10:52:18;;;;;;;12.50;7.95;;;7.60;57.50;;;;;;2335124;53;21552;-66
2022/04/01 10:54:46;;;;;;;11.40;7.53;;;7.70;57.70;;;;;;2359736;54;20989;-67
2022/04/01 10:58:06;;;;;;;10.52;6.90;;;7.70;57.40;;;;;;2329983;55;20973;-66
2022/04/01 11:00:33;;;;;;;10.63;6.78;;;7.70;57.60;;;;;;2334939;53;21954;-66
2022/04/01 11:03:22;;;;;;;11.00;7.30;;;7.70;57.40;;;;;;2334739;53;21996;-67
2022/04/01 11:05:49;;;;;;;12.27;8.52;;;7.70;57.60;;;;;;2593119;52;22063;-66
2022/04/01 11:08:21;;;;;;;12.18;7.95;;;7.60;57.30;;;;;;2333886;53;20951;-67
2022/04/01 11:11:09;;;;;;;11.90;8.45;;;7.60;57.40;;;;;;2341167;53;22009;-66
2022/04/01 11:13:36;;;;;;;12.13;8.63;;;7.60;57.60;;;;;;2342695;53;20968;-67
2022/04/01 11:16:20;;;;;;;11.23;7.53;;;7.60;57.30;;;;;;2335696;53;20921;-67
2022/04/01 11:19:15;;;;;;;11.88;8.02;;;7.60;57.50;;;;;;2338186;53;21573;-67
2022/04/01 11:21:43;;;;;;;12.52;7.12;;;7.60;57.40;;;;;;2334609;53;20993;-67
2022/04/01 11:26:01;;;;;;;10.90;7.43;;;7.60;57.40;;;;;;2351898;53;20953;-66
2022/04/01 11:28:28;;;;;;;9.93;6.78;;;7.60;57.60;;;;;;2334188;53;21064;-67
2022/04/01 11:31:04;;;;;;;11.43;7.45;;;7.60;57.20;;;;;;2334608;53;20944;-65
2022/04/01 11:33:31;;;;;;;9.98;6.85;;;7.60;57.30;;;;;;2334249;53;20953;-65
2022/04/01 11:35:58;;;;;;;10.07;6.82;;;7.50;57.20;;;;;;2334244;53;21946;-67
2022/04/01 11:38:25;;;;;;;9.52;6.22;;;7.50;57.20;;;;;;2334865;53;20972;-67
2022/04/01 11:40:54;;;;;;;9.30;6.05;;;7.50;57.30;;;;;;2334363;53;21028;-67
2022/04/01 11:43:20;;;;;;;8.02;5.62;;;7.50;57.40;;;;;;2334751;53;21981;-65
2022/04/01 11:46:07;;;;;;;9.45;5.80;;;7.50;57.40;;;;;;2334801;53;20952;-67
2022/04/01 11:48:37;;;;;;;8.35;5.60;;;7.50;57.60;;;;;;2334479;53;20928;-67
2022/04/01 11:51:39;;;;;;;8.15;5.65;;;7.50;57.40;;;;;;2334796;53;20968;-66
2022/04/01 11:54:09;;;;;;;9.00;5.72;;;7.50;57.50;;;;;;2334553;53;21944;-67
2022/04/01 11:56:36;;;;;;;9.35;5.93;;;7.50;57.50;;;;;;2334336;53;21916;-67
2022/04/01 11:59:04;;;;;;;9.95;6.12;;;7.50;57.60;;;;;;2409120;52;21003;-67
2022/04/01 12:01:38;;;;;;;9.13;5.90;;;7.50;57.60;;;;;;2573249;52;20962;-66
2022/04/01 12:04:28;;;;;;;10.32;6.60;;;7.50;57.70;;;;;;2338688;53;20956;-66
2022/04/01 12:10:01;;;;;;;8.68;5.57;;;7.50;57.90;;;;;;2515070;52;22022;-65
2022/04/01 12:12:27;;;;;;;10.13;6.65;;;7.50;57.70;;;;;;2334097;53;20940;-67
2022/04/01 12:14:57;;;;;;;9.23;6.20;;;7.60;57.70;;;;;;2334513;53;20945;-66
2022/04/01 12:17:26;;;;;;;9.55;6.28;;;7.60;57.80;;;;;;2334353;53;20945;-67
2022/04/01 12:20:11;;;;;;;9.85;6.82;;;7.50;57.70;;;;;;2584920;52;21074;-66
2022/04/01 12:22:57;;;;;;;10.80;7.18;;;7.60;57.90;;;;;;2347133;53;20944;-67
2022/04/01 12:25:23;;;;;;;9.65;6.55;;;7.60;57.70;;;;;;2341051;54;21069;-67
2022/04/01 12:28:10;;;;;;;11.30;7.65;;;7.60;57.80;;;;;;2588856;52;21948;-67
2022/04/01 12:30:42;;;;;;;10.60;7.50;;;7.60;58.00;;;;;;2334351;53;21000;-67
2022/04/01 12:33:19;;;;;;;12.00;8.55;;;7.60;57.80;;;;;;2334655;53;21977;-66
2022/04/01 12:36:08;;;;;;;12.82;8.52;;;7.60;57.70;;;;;;2334458;53;20933;-65
2022/04/01 12:38:36;;;;;;;11.98;8.27;;;7.70;57.80;;;;;;2333548;53;21844;-67
2022/04/01 12:41:06;;;;;;;12.43;7.80;;;7.70;57.60;;;;;;2344941;53;20930;-66
2022/04/01 12:43:43;;;;;;;11.48;7.95;;;7.70;57.70;;;;;;2340370;53;20957;-66
2022/04/01 12:46:13;;;;;;;12.27;8.57;;;7.70;57.90;;;;;;2343594;53;21047;-66
2022/04/01 12:48:55;;;;;;;12.88;9.02;;;7.70;57.80;;;;;;2348169;53;21031;-66
2022/04/01 12:51:46;;;;;;;13.50;9.80;;;7.70;57.80;;;;;;2347898;53;21267;-67
2022/04/01 12:54:22;;;;;;;12.50;8.75;;;7.70;57.70;;;;;;2336555;53;21534;-68
2022/04/01 12:56:52;;;;;;;13.00;8.60;;;7.70;57.40;;;;;;2334522;53;21581;-67
2022/04/01 12:59:19;;;;;;;11.00;8.00;;;7.70;57.40;;;;;;2516049;52;21037;-67
2022/04/01 13:01:56;;;;;;;10.57;7.12;;;7.60;57.30;;;;;;2341513;53;20963;-65
2022/04/01 13:04:23;;;;;;;9.65;6.60;;;7.60;57.50;;;;;;2334323;53;20980;-68
2022/04/01 13:07:05;;;;;;;10.23;6.40;;;7.60;57.60;;;;;;2339169;53;21023;-66
2022/04/01 13:09:31;;;;;;;10.20;7.10;;;7.70;58.10;;;;;;2345942;53;20933;-65
2022/04/01 13:12:00;;;;;;;9.20;6.47;;;7.70;57.90;;;;;;2335017;53;20979;-68
2022/04/01 13:14:27;;;;;;;9.13;5.90;;;7.70;58.00;;;;;;2334400;53;21060;-68
2022/04/01 13:17:00;;;;;;;8.82;6.03;;;7.70;58.20;;;;;;2580457;52;21857;-66
2022/04/01 13:19:32;;;;;;;10.85;6.80;;;7.80;58.40;;;;;;2341225;53;20956;-68
2022/04/01 13:21:59;;;;;;;;;;;7.80;58.40;;;;;;2350301;53;21482;-67
2022/04/01 13:24:27;;;;;;;7.40;5.00;;;7.90;58.60;;;;;;2574721;52;20054;-68
2022/04/01 13:26:53;;;;;;;7.55;5.07;;;8.00;58.30;;;;;;2344321;53;20974;-68
2022/04/01 13:29:20;;;;;;;8.50;5.68;;;8.00;58.30;;;;;;2343588;53;20937;-68
2022/04/01 13:31:52;;;;;;;9.95;6.43;;;8.00;58.20;;;;;;2334872;53;21036;-68
2022/04/01 13:34:19;;;;;;;9.52;6.90;;;8.10;58.30;;;;;;2334870;53;21573;-67